Time;durP1;ratioP1;P1;durP2;ratioP2;P2;SDS_P1;SDS_P2;PMS_P1;PMS_P2;Temp;Humidity;BMP_temperature;BMP_pressure;BME280_temperature;BME280_humidity;BME280_pressure;Samples;Min_cycle;Max_cycle;Signal;HPM_P1;HPM_P2
2021/12/12 00:00:15;;;;;;;10.17;3.37;;;3.20;99.90;;;;;;5034649;28;20186;-48
2021/12/12 00:02:56;;;;;;;9.43;3.17;;;3.20;99.90;;;;;;5034208;28;20200;-48
2021/12/12 00:05:43;;;;;;;10.13;2.97;;;3.20;99.90;;;;;;5034417;28;20399;-46
2021/12/12 00:08:10;;;;;;;16.23;3.30;;;3.20;99.90;;;;;;5034357;28;20195;-49
2021/12/12 00:10:39;;;;;;;12.70;3.13;;;3.30;99.90;;;;;;5036707;28;20173;-49
2021/12/12 00:13:13;;;;;;;9.57;2.97;;;3.30;99.90;;;;;;5035814;28;20602;-48
2021/12/12 00:15:40;;;;;;;10.20;2.97;;;3.30;99.90;;;;;;5035930;28;20184;-48
2021/12/12 00:18:06;;;;;;;9.67;2.83;;;3.30;99.90;;;;;;5036158;28;20256;-47
2021/12/12 00:20:34;;;;;;;5.47;2.57;;;3.40;99.90;;;;;;5035689;28;20722;-49
2021/12/12 00:23:00;;;;;;;7.37;2.67;;;3.40;99.90;;;;;;5035574;28;20214;-48
2021/12/12 00:25:38;;;;;;;9.70;3.07;;;3.40;99.90;;;;;;5035749;28;20175;-48
2021/12/12 00:28:05;;;;;;;12.67;3.07;;;3.40;99.90;;;;;;5035844;28;20627;-47
2021/12/12 00:30:33;;;;;;;6.43;2.90;;;3.50;99.90;;;;;;5035753;28;20207;-48
2021/12/12 00:32:58;;;;;;;8.40;2.60;;;3.50;99.90;;;;;;5035678;28;20196;-48
2021/12/12 00:35:24;;;;;;;9.80;3.13;;;3.50;99.90;;;;;;5035918;28;20195;-47
2021/12/12 00:38:01;;;;;;;6.43;2.60;;;3.50;99.90;;;;;;5035909;28;20238;-47
2021/12/12 00:40:34;;;;;;;6.33;3.00;;;3.50;99.90;;;;;;5035886;28;20647;-47
2021/12/12 00:43:06;;;;;;;10.67;2.70;;;3.60;99.90;;;;;;5036372;28;20200;-47
2021/12/12 00:45:33;;;;;;;7.20;3.00;;;3.60;99.90;;;;;;5035920;28;20168;-46
2021/12/12 00:47:58;;;;;;;10.30;3.07;;;3.60;99.90;;;;;;5034778;28;20180;-44
2021/12/12 00:50:31;;;;;;;9.20;2.70;;;3.60;99.90;;;;;;5033392;28;20407;-46
2021/12/12 00:52:59;;;;;;;6.40;2.70;;;3.70;99.90;;;;;;5033707;28;20290;-45
2021/12/12 00:55:25;;;;;;;8.93;3.57;;;3.60;99.90;;;;;;5032683;28;20237;-44
2021/12/12 00:57:53;;;;;;;7.20;2.90;;;3.70;99.90;;;;;;5033394;28;20657;-45
2021/12/12 01:00:24;;;;;;;7.33;3.27;;;3.70;99.90;;;;;;5033392;28;20423;-45
2021/12/12 01:02:50;;;;;;;9.60;3.00;;;3.70;99.90;;;;;;5033317;28;20216;-44
2021/12/12 01:05:20;;;;;;;6.67;3.10;;;3.60;99.90;;;;;;5033222;28;20176;-46
2021/12/12 01:07:48;;;;;;;10.17;2.67;;;3.70;99.90;;;;;;5033887;28;20517;-45
2021/12/12 01:10:25;;;;;;;8.20;2.97;;;3.70;99.90;;;;;;5033249;28;20244;-44
2021/12/12 01:15:40;;;;;;;13.23;3.03;;;3.60;99.90;;;;;;4828939;26;20232;-42
2021/12/12 01:18:16;;;;;;;10.50;3.10;;;3.70;99.90;;;;;;5013444;28;20161;-42
2021/12/12 01:20:58;;;;;;;10.87;3.10;;;3.70;99.90;;;;;;5013941;28;20196;-43
2021/12/12 01:23:34;;;;;;;5.10;3.10;;;3.80;99.90;;;;;;4993896;28;20242;-38
2021/12/12 01:26:00;;;;;;;7.20;2.83;;;3.70;99.90;;;;;;4993944;28;20186;-41
2021/12/12 01:28:32;;;;;;;15.47;4.10;;;3.70;99.90;;;;;;4993717;28;20181;-41
2021/12/12 01:31:01;;;;;;;6.70;2.60;;;3.70;99.90;;;;;;4976007;28;20170;-40
2021/12/12 01:33:34;;;;;;;11.07;2.93;;;3.70;99.90;;;;;;4993922;28;20272;-42
2021/12/12 01:36:05;;;;;;;6.80;2.83;;;3.70;99.90;;;;;;4993590;28;20231;-41
2021/12/12 01:38:52;;;;;;;10.27;2.70;;;3.70;99.90;;;;;;4994020;28;20489;-40
2021/12/12 01:41:22;;;;;;;7.20;2.50;;;3.70;99.90;;;;;;4993947;28;20213;-42
2021/12/12 01:43:49;;;;;;;5.50;2.53;;;3.70;99.90;;;;;;4993900;28;20169;-42
2021/12/12 01:46:21;;;;;;;8.47;2.60;;;3.70;99.90;;;;;;4993504;28;20185;-43
2021/12/12 01:48:58;;;;;;;11.43;2.87;;;3.70;99.90;;;;;;4993485;28;20181;-42
2021/12/12 01:51:27;;;;;;;12.37;2.70;;;3.70;99.90;;;;;;4993462;28;20213;-42
2021/12/12 01:53:58;;;;;;;9.73;3.20;;;3.80;99.90;;;;;;4993432;28;20189;-41
2021/12/12 01:56:27;;;;;;;6.93;3.10;;;3.80;99.90;;;;;;5008452;28;20189;-40
2021/12/12 01:58:58;;;;;;;10.20;3.20;;;3.90;99.90;;;;;;4993463;28;20185;-42
2021/12/12 02:01:39;;;;;;;9.47;2.60;;;3.90;99.90;;;;;;4993387;28;20300;-42
2021/12/12 02:04:15;;;;;;;8.53;3.07;;;3.90;99.90;;;;;;4993467;28;20667;-42
2021/12/12 02:06:45;;;;;;;9.57;3.10;;;3.90;99.90;;;;;;4995723;28;20165;-43
2021/12/12 02:09:12;;;;;;;9.23;3.10;;;3.90;99.90;;;;;;4997362;28;20161;-43
2021/12/12 02:11:39;;;;;;;12.90;3.43;;;4.00;99.90;;;;;;4996808;28;20237;-45
2021/12/12 02:14:15;;;;;;;10.30;3.03;;;4.00;99.90;;;;;;4997303;28;20194;-43
2021/12/12 02:16:57;;;;;;;6.80;2.37;;;4.00;99.90;;;;;;4996896;28;20240;-42
2021/12/12 02:20:32;;;;;;;12.03;2.67;;;4.00;99.90;;;;;;4997104;28;20174;-45
2021/12/12 02:22:55;;;;;;;9.37;3.00;;;4.10;99.90;;;;;;4983465;28;20638;-44
2021/12/12 02:35:46;;;;;;;11.80;3.30;;;4.10;99.90;;;;;;4996870;28;20166;-44
2021/12/12 02:38:27;;;;;;;10.43;3.40;;;4.10;99.90;;;;;;4996737;28;20162;-44
2021/12/12 02:40:59;;;;;;;10.27;3.10;;;4.10;99.90;;;;;;4996297;28;20202;-40
2021/12/12 02:43:28;;;;;;;13.30;4.30;;;4.10;99.90;;;;;;4996679;28;20605;-44
2021/12/12 02:45:56;;;;;;;16.33;3.47;;;4.10;99.90;;;;;;4996267;28;20178;-44
2021/12/12 02:48:32;;;;;;;14.83;3.37;;;4.10;99.90;;;;;;4996535;28;20183;-44
2021/12/12 02:51:01;;;;;;;10.80;2.83;;;4.20;99.90;;;;;;4996446;28;20601;-42
2021/12/12 02:53:40;;;;;;;12.77;3.47;;;4.20;99.90;;;;;;4996374;28;20679;-45
2021/12/12 02:56:13;;;;;;;9.73;2.93;;;4.30;99.90;;;;;;4996684;28;20236;-43
2021/12/12 02:58:41;;;;;;;7.47;2.63;;;4.30;99.90;;;;;;4978625;28;20517;-45
2021/12/12 03:01:15;;;;;;;11.60;3.20;;;4.40;99.90;;;;;;4995808;28;20237;-42
2021/12/12 03:03:42;;;;;;;13.27;3.27;;;4.40;99.90;;;;;;4996263;28;20173;-45
2021/12/12 03:06:12;;;;;;;10.57;2.83;;;4.50;99.90;;;;;;4995955;28;20178;-44
2021/12/12 03:08:40;;;;;;;14.87;3.40;;;4.50;99.90;;;;;;4995899;28;20176;-43
2021/12/12 03:11:06;;;;;;;12.37;2.80;;;4.50;99.90;;;;;;4995805;28;20186;-41
2021/12/12 03:13:33;;;;;;;13.17;2.43;;;4.60;99.90;;;;;;4978925;28;20192;-44
2021/12/12 03:15:58;;;;;;;14.80;3.03;;;4.70;99.90;;;;;;4995818;28;20241;-43
2021/12/12 03:18:38;;;;;;;12.47;2.63;;;4.70;99.90;;;;;;4977327;28;20178;-42
2021/12/12 03:21:14;;;;;;;16.30;3.10;;;4.80;99.90;;;;;;4996095;28;20198;-42
2021/12/12 03:23:46;;;;;;;13.37;2.77;;;4.80;99.90;;;;;;4996040;28;20186;-44
2021/12/12 03:26:13;;;;;;;13.70;3.50;;;4.80;99.90;;;;;;4995657;28;20158;-44
2021/12/12 03:28:41;;;;;;;12.87;2.97;;;4.80;99.90;;;;;;4978187;28;20656;-40
2021/12/12 03:31:17;;;;;;;15.07;2.97;;;4.80;99.90;;;;;;4995445;28;20178;-39
2021/12/12 03:33:43;;;;;;;10.47;3.27;;;4.90;99.90;;;;;;4995899;28;20166;-49
2021/12/12 03:36:11;;;;;;;11.80;3.07;;;4.90;99.90;;;;;;4996035;28;20265;-48
2021/12/12 03:38:41;;;;;;;11.53;2.83;;;4.90;99.90;;;;;;4978646;28;20204;-47
2021/12/12 03:41:10;;;;;;;10.00;2.97;;;4.90;99.90;;;;;;4995570;28;20197;-46
2021/12/12 03:43:37;;;;;;;11.57;2.80;;;5.00;99.90;;;;;;4995232;28;20178;-49
2021/12/12 03:46:06;;;;;;;7.00;2.30;;;4.90;99.90;;;;;;4995251;28;20193;-47
2021/12/12 03:48:34;;;;;;;10.47;2.73;;;5.00;99.90;;;;;;4995619;28;20173;-47
2021/12/12 03:51:05;;;;;;;9.27;2.50;;;5.00;99.90;;;;;;4995334;28;20262;-48
2021/12/12 03:53:35;;;;;;;8.37;2.57;;;5.00;99.90;;;;;;4978607;28;20185;-48
2021/12/12 03:56:01;;;;;;;6.77;2.57;;;4.90;99.90;;;;;;4995602;28;20532;-49
2021/12/12 03:58:27;;;;;;;15.70;3.30;;;4.90;99.90;;;;;;4995200;28;20192;-49
2021/12/12 04:01:00;;;;;;;11.70;3.13;;;5.00;99.90;;;;;;4995256;28;20198;-47
2021/12/12 04:03:27;;;;;;;13.67;3.03;;;4.90;99.90;;;;;;4994994;28;20250;-47
2021/12/12 04:05:59;;;;;;;11.20;3.03;;;4.90;99.90;;;;;;4994940;28;20727;-48
2021/12/12 04:08:34;;;;;;;15.00;3.10;;;4.90;99.90;;;;;;4994943;28;20163;-48
2021/12/12 04:11:01;;;;;;;11.87;2.90;;;4.90;99.90;;;;;;4994750;28;20173;-50
2021/12/12 04:13:27;;;;;;;14.40;3.10;;;4.90;99.90;;;;;;4994908;28;20332;-47
2021/12/12 04:15:56;;;;;;;13.50;3.03;;;4.90;99.90;;;;;;4994650;28;20271;-47
2021/12/12 04:18:25;;;;;;;8.87;2.63;;;4.90;99.90;;;;;;4994720;28;20229;-48
2021/12/12 04:20:54;;;;;;;14.37;3.23;;;4.90;99.90;;;;;;4994399;28;20210;-48
2021/12/12 04:23:23;;;;;;;8.83;2.77;;;4.90;99.90;;;;;;4961404;28;20174;-46
2021/12/12 04:25:49;;;;;;;13.37;2.93;;;4.90;99.90;;;;;;4977131;28;20229;-48
2021/12/12 04:28:16;;;;;;;10.33;3.20;;;4.90;99.90;;;;;;4994671;28;20178;-48
2021/12/12 04:30:42;;;;;;;11.50;3.37;;;4.90;99.90;;;;;;4994765;28;20182;-48
2021/12/12 04:33:08;;;;;;;12.13;3.30;;;4.90;99.90;;;;;;4994903;28;20541;-48
2021/12/12 04:35:35;;;;;;;10.57;2.90;;;4.90;99.90;;;;;;4994628;28;20178;-49
2021/12/12 04:38:03;;;;;;;11.63;3.10;;;4.80;99.90;;;;;;4994869;28;20240;-48
2021/12/12 04:40:30;;;;;;;9.07;3.27;;;4.90;99.90;;;;;;4994757;28;20265;-48
2021/12/12 04:42:57;;;;;;;11.47;3.53;;;4.90;99.90;;;;;;4977642;28;20247;-49
2021/12/12 04:45:47;;;;;;;17.87;3.67;;;4.90;99.90;;;;;;4995133;28;20182;-49
2021/12/12 04:51:57;;;;;;;8.73;3.13;;;4.90;99.90;;;;;;4995112;28;20212;-47
2021/12/12 04:54:36;;;;;;;10.03;3.23;;;4.90;99.90;;;;;;4986742;28;20198;-46
2021/12/12 04:57:22;;;;;;;14.80;3.27;;;4.90;99.90;;;;;;4978077;28;20174;-49
2021/12/12 05:00:02;;;;;;;14.60;3.90;;;4.90;99.90;;;;;;4977114;28;20662;-47
2021/12/12 05:02:43;;;;;;;15.90;3.27;;;4.90;99.90;;;;;;4994575;28;20297;-47
2021/12/12 05:05:24;;;;;;;11.07;3.67;;;4.90;99.90;;;;;;4977420;28;20248;-47
2021/12/12 05:07:53;;;;;;;20.87;3.30;;;4.90;99.90;;;;;;4994677;28;20173;-48
2021/12/12 05:10:24;;;;;;;7.33;2.77;;;4.90;99.90;;;;;;4994607;28;20178;-48
2021/12/12 05:13:21;;;;;;;11.97;3.33;;;4.90;99.90;;;;;;4994587;28;20198;-48
2021/12/12 05:15:57;;;;;;;11.47;3.00;;;5.00;99.90;;;;;;4982366;28;20202;-51
2021/12/12 05:18:33;;;;;;;15.53;3.30;;;5.00;99.90;;;;;;4994702;28;20193;-49
2021/12/12 05:21:10;;;;;;;9.93;2.67;;;5.00;99.90;;;;;;4994682;28;20639;-49
2021/12/12 05:23:40;;;;;;;9.23;2.80;;;5.00;99.90;;;;;;4994764;28;20170;-49
2021/12/12 05:26:12;;;;;;;10.40;2.40;;;5.10;99.90;;;;;;4994229;28;20632;-48
2021/12/12 05:28:43;;;;;;;16.63;3.00;;;5.10;99.90;;;;;;4994789;28;20526;-49
2021/12/12 05:31:10;;;;;;;10.83;2.40;;;5.20;99.90;;;;;;4994564;28;20166;-49
2021/12/12 05:33:36;;;;;;;6.87;2.23;;;5.20;99.90;;;;;;4994718;28;20186;-48
2021/12/12 05:36:05;;;;;;;5.67;2.27;;;5.30;99.90;;;;;;4977223;28;20186;-47
2021/12/12 05:38:31;;;;;;;11.07;2.50;;;5.40;99.90;;;;;;4995028;28;20237;-47
2021/12/12 05:40:57;;;;;;;6.13;1.70;;;5.40;99.90;;;;;;4995573;28;20214;-46
2021/12/12 05:43:23;;;;;;;9.47;2.00;;;5.40;99.90;;;;;;4998700;28;20265;-49
2021/12/12 05:45:51;;;;;;;10.17;2.27;;;5.40;99.90;;;;;;4998811;28;20325;-49
2021/12/12 05:48:16;;;;;;;7.50;2.23;;;5.50;99.90;;;;;;4998474;28;20174;-47
2021/12/12 05:50:44;;;;;;;5.37;1.93;;;5.50;99.90;;;;;;4998703;28;20182;-48
2021/12/12 05:53:09;;;;;;;5.90;2.50;;;5.50;99.90;;;;;;4980828;28;20269;-47
2021/12/12 05:55:37;;;;;;;9.33;2.30;;;5.60;99.90;;;;;;4980994;28;20254;-48
2021/12/12 05:58:07;;;;;;;10.83;2.30;;;5.60;99.90;;;;;;4998483;28;20678;-46
2021/12/12 06:00:36;;;;;;;5.97;2.00;;;5.60;99.90;;;;;;4981478;28;20186;-49
2021/12/12 06:03:08;;;;;;;7.77;2.00;;;5.60;99.90;;;;;;4998034;28;20248;-47
2021/12/12 06:05:34;;;;;;;8.23;1.93;;;5.60;99.90;;;;;;4998166;28;20158;-49
2021/12/12 06:08:00;;;;;;;3.87;1.97;;;5.60;99.90;;;;;;4998132;28;20174;-47
2021/12/12 06:10:25;;;;;;;4.80;1.93;;;5.60;99.90;;;;;;4980711;28;20277;-46
2021/12/12 06:12:53;;;;;;;5.73;1.90;;;5.70;99.90;;;;;;4980651;28;20202;-47
2021/12/12 06:15:22;;;;;;;4.27;1.77;;;5.70;99.90;;;;;;4998152;28;20233;-47
2021/12/12 06:17:50;;;;;;;6.10;1.80;;;5.70;99.90;;;;;;4980538;28;20276;-49
2021/12/12 06:20:17;;;;;;;3.37;1.70;;;5.70;99.90;;;;;;4981095;28;20244;-47
2021/12/12 06:22:43;;;;;;;4.30;1.70;;;5.70;99.90;;;;;;4997539;28;20215;-47
2021/12/12 06:25:10;;;;;;;5.80;1.70;;;5.70;99.90;;;;;;4997648;28;20632;-48
2021/12/12 06:27:37;;;;;;;5.70;1.67;;;5.70;99.90;;;;;;4997578;28;20261;-47
2021/12/12 06:30:10;;;;;;;5.73;1.70;;;5.70;99.90;;;;;;4997405;28;20186;-49
2021/12/12 06:32:36;;;;;;;3.57;1.37;;;5.70;99.90;;;;;;4998113;28;20637;-48
2021/12/12 06:35:03;;;;;;;7.80;2.13;;;5.80;99.90;;;;;;4997732;28;20229;-48
2021/12/12 06:37:30;;;;;;;3.33;1.60;;;5.70;99.90;;;;;;4997829;28;20240;-48
2021/12/12 06:39:56;;;;;;;2.77;1.40;;;5.70;99.90;;;;;;4997681;28;20668;-47
2021/12/12 06:42:23;;;;;;;2.73;1.67;;;5.80;99.90;;;;;;4997720;28;20218;-47
2021/12/12 06:44:49;;;;;;;5.33;1.60;;;5.70;99.90;;;;;;4998228;28;20273;-47
2021/12/12 06:47:17;;;;;;;2.97;1.57;;;5.70;99.90;;;;;;4997451;28;20213;-47
2021/12/12 06:49:43;;;;;;;6.00;1.70;;;5.80;99.90;;;;;;4997347;28;20232;-48
2021/12/12 06:52:11;;;;;;;2.27;1.50;;;5.80;99.90;;;;;;4996780;28;20202;-48
2021/12/12 06:54:38;;;;;;;2.87;1.50;;;5.80;99.90;;;;;;4996782;28;20201;-47
2021/12/12 06:57:07;;;;;;;6.10;1.40;;;5.90;99.90;;;;;;4997690;28;20186;-48
2021/12/12 06:59:35;;;;;;;4.03;1.60;;;5.90;99.90;;;;;;4996923;28;20266;-48
2021/12/12 07:02:02;;;;;;;3.50;1.60;;;5.90;99.90;;;;;;5011724;28;20218;-48
2021/12/12 07:04:30;;;;;;;2.07;1.33;;;6.00;99.90;;;;;;4997100;28;20206;-49
2021/12/12 07:06:59;;;;;;;6.37;1.57;;;6.00;99.90;;;;;;4996859;28;20245;-48
2021/12/12 07:09:30;;;;;;;2.67;1.20;;;6.10;99.90;;;;;;4996727;28;20225;-48
2021/12/12 07:11:57;;;;;;;1.60;1.00;;;6.10;99.90;;;;;;4996635;28;20210;-49
2021/12/12 07:14:23;;;;;;;1.50;1.10;;;6.10;99.90;;;;;;4996457;28;20226;-47
2021/12/12 07:16:49;;;;;;;4.03;1.40;;;6.10;99.90;;;;;;4979453;28;20232;-50
2021/12/12 07:19:16;;;;;;;2.27;0.93;;;6.10;99.90;;;;;;4996680;28;20178;-47
2021/12/12 07:21:44;;;;;;;4.13;1.20;;;6.20;99.90;;;;;;4978713;28;20242;-49
2021/12/12 07:24:11;;;;;;;1.20;1.10;;;6.10;99.90;;;;;;4978996;28;20234;-49
2021/12/12 07:26:37;;;;;;;3.07;1.10;;;6.20;99.90;;;;;;4996115;28;20645;-48
2021/12/12 07:29:03;;;;;;;1.90;1.03;;;6.20;99.90;;;;;;4996211;28;20187;-48
2021/12/12 07:31:33;;;;;;;1.83;1.20;;;6.20;99.90;;;;;;4996286;28;20303;-49
2021/12/12 07:34:02;;;;;;;0.80;0.80;;;6.20;99.90;;;;;;4996178;28;20179;-47
2021/12/12 07:36:32;;;;;;;3.30;1.10;;;6.30;99.90;;;;;;4996080;28;20187;-47
2021/12/12 07:39:05;;;;;;;3.90;1.27;;;6.30;99.90;;;;;;4995890;28;20279;-49
2021/12/12 07:41:32;;;;;;;2.73;1.10;;;6.30;99.90;;;;;;4995643;28;20218;-48
2021/12/12 07:43:59;;;;;;;1.67;1.20;;;6.30;99.90;;;;;;4996667;28;20182;-46
2021/12/12 07:46:27;;;;;;;2.90;1.37;;;6.30;99.90;;;;;;4978498;28;20179;-48
2021/12/12 07:48:54;;;;;;;2.27;0.87;;;6.40;99.90;;;;;;4995369;28;20233;-46
2021/12/12 07:51:21;;;;;;;3.33;1.00;;;6.30;99.90;;;;;;4995261;28;20211;-48
2021/12/12 07:53:52;;;;;;;1.83;1.10;;;6.40;99.90;;;;;;4994955;28;20230;-48
2021/12/12 07:56:19;;;;;;;1.97;1.37;;;6.40;99.90;;;;;;4995065;28;20168;-46
2021/12/12 07:58:45;;;;;;;1.43;1.10;;;6.40;99.90;;;;;;4995503;28;20195;-48
2021/12/12 08:01:13;;;;;;;1.87;1.10;;;6.40;99.90;;;;;;4977703;28;20216;-48
2021/12/12 08:03:43;;;;;;;1.93;0.97;;;6.40;99.90;;;;;;4994351;28;20190;-48
2021/12/12 08:06:13;;;;;;;1.73;1.10;;;6.50;99.90;;;;;;4995051;28;20175;-46
2021/12/12 08:08:41;;;;;;;1.30;1.13;;;6.50;99.90;;;;;;4995342;28;20167;-46
2021/12/12 08:11:08;;;;;;;1.10;1.00;;;6.50;99.90;;;;;;4994674;28;20241;-48
2021/12/12 08:13:35;;;;;;;1.23;1.13;;;6.50;99.90;;;;;;4994508;28;20204;-47
2021/12/12 08:16:03;;;;;;;2.20;1.00;;;6.60;99.90;;;;;;4994748;28;20174;-46
2021/12/12 08:18:29;;;;;;;1.67;1.00;;;6.60;99.90;;;;;;4994880;28;20656;-46
2021/12/12 08:20:56;;;;;;;2.37;1.00;;;6.60;99.90;;;;;;4994329;28;20301;-46
2021/12/12 08:23:23;;;;;;;1.63;0.97;;;6.60;99.90;;;;;;4994500;28;20183;-48
2021/12/12 08:25:51;;;;;;;0.77;0.73;;;6.70;99.90;;;;;;4994805;28;20214;-46
2021/12/12 08:28:19;;;;;;;2.20;0.90;;;6.70;99.90;;;;;;4994486;28;20188;-47
2021/12/12 08:30:46;;;;;;;1.33;1.07;;;6.70;99.90;;;;;;4994421;28;20259;-46
2021/12/12 08:33:12;;;;;;;1.77;1.30;;;6.80;99.90;;;;;;4994246;28;20226;-47
2021/12/12 08:35:39;;;;;;;2.17;1.20;;;6.80;99.90;;;;;;4994649;28;20571;-46
2021/12/12 08:38:07;;;;;;;1.30;1.03;;;6.80;99.90;;;;;;4994583;28;20175;-47
2021/12/12 08:40:38;;;;;;;1.20;1.10;;;6.90;99.90;;;;;;4994183;28;20183;-48
2021/12/12 08:43:12;;;;;;;1.30;1.00;;;6.90;99.90;;;;;;4994235;28;20289;-47
2021/12/12 08:45:42;;;;;;;2.47;0.93;;;6.90;99.90;;;;;;4994264;28;20173;-47
2021/12/12 08:48:08;;;;;;;1.33;1.00;;;6.90;99.90;;;;;;4994377;28;20527;-49
2021/12/12 08:50:38;;;;;;;1.30;1.10;;;6.90;99.90;;;;;;4994270;28;20193;-48
2021/12/12 08:53:05;;;;;;;2.47;0.90;;;7.00;99.90;;;;;;4994008;28;20205;-48
2021/12/12 08:55:37;;;;;;;1.97;1.10;;;7.00;99.90;;;;;;4977385;28;20182;-48
2021/12/12 08:58:14;;;;;;;1.40;1.10;;;7.00;99.90;;;;;;4993986;28;20199;-47
2021/12/12 09:01:07;;;;;;;1.50;1.07;;;7.00;99.90;;;;;;4993944;28;20572;-47
2021/12/12 09:03:54;;;;;;;1.20;1.10;;;7.00;99.90;;;;;;4993940;28;20270;-46
2021/12/12 09:06:26;;;;;;;2.20;0.93;;;7.00;99.90;;;;;;4994120;28;20630;-49
2021/12/12 09:09:16;;;;;;;2.60;1.10;;;7.00;99.90;;;;;;4976825;28;20198;-49
2021/12/12 09:11:59;;;;;;;0.80;0.80;;;7.10;99.90;;;;;;4993857;28;20219;-46
2021/12/12 09:14:54;;;;;;;1.13;0.90;;;7.10;99.90;;;;;;4994251;28;20199;-48
2021/12/12 09:17:26;;;;;;;2.33;1.00;;;7.10;99.90;;;;;;4970725;28;20565;-48
2021/12/12 09:20:11;;;;;;;2.10;1.27;;;7.20;99.90;;;;;;4994577;28;20193;-48
2021/12/12 09:22:55;;;;;;;1.00;0.90;;;7.20;99.90;;;;;;4994247;28;20212;-46
2021/12/12 09:25:50;;;;;;;1.77;1.13;;;7.30;99.90;;;;;;4994400;28;20169;-48
2021/12/12 09:28:37;;;;;;;2.30;1.17;;;7.30;99.90;;;;;;4994077;28;20622;-47
2021/12/12 09:31:11;;;;;;;2.83;1.17;;;7.30;99.90;;;;;;4993549;28;20172;-47
2021/12/12 09:33:52;;;;;;;2.77;1.37;;;7.40;99.90;;;;;;4976055;28;20549;-47
2021/12/12 09:36:24;;;;;;;1.30;1.13;;;7.40;99.90;;;;;;4993590;28;20187;-47
2021/12/12 09:39:07;;;;;;;2.37;1.07;;;7.40;99.90;;;;;;4993908;28;20210;-48
2021/12/12 09:41:55;;;;;;;2.73;1.00;;;7.40;99.90;;;;;;4993362;28;20213;-45
2021/12/12 09:44:39;;;;;;;3.23;1.53;;;7.50;99.90;;;;;;4976126;28;20182;-48
2021/12/12 09:47:59;;;;;;;4.10;1.53;;;7.50;99.90;;;;;;4994060;28;20181;-46
2021/12/12 09:54:18;;;;;;;2.13;1.30;;;7.70;99.90;;;;;;4993419;28;20221;-47
2021/12/12 09:57:00;;;;;;;4.83;1.50;;;7.70;99.90;;;;;;4993468;28;20199;-46
2021/12/12 09:59:44;;;;;;;3.73;1.53;;;7.70;99.90;;;;;;4993937;28;20183;-47
2021/12/12 10:02:29;;;;;;;2.20;1.47;;;7.70;99.90;;;;;;4993559;28;20220;-48
2021/12/12 10:05:19;;;;;;;4.37;1.67;;;7.80;99.90;;;;;;4993681;28;20162;-47
2021/12/12 10:08:04;;;;;;;3.17;1.87;;;7.80;99.90;;;;;;4993867;28;20214;-50
2021/12/12 10:10:34;;;;;;;2.30;1.50;;;7.80;99.90;;;;;;4993489;28;20194;-48
2021/12/12 10:13:07;;;;;;;3.60;2.03;;;7.80;99.90;;;;;;4993198;28;20244;-47
2021/12/12 10:15:41;;;;;;;4.77;1.77;;;7.90;99.90;;;;;;4993117;28;20282;-47
2021/12/12 10:18:20;;;;;;;4.03;2.00;;;7.90;99.90;;;;;;4993760;28;20165;-47
2021/12/12 10:21:04;;;;;;;3.87;2.40;;;8.00;99.90;;;;;;4993147;28;20234;-49
2021/12/12 10:24:09;;;;;;;2.50;1.77;;;8.00;99.90;;;;;;4993481;28;20704;-46
2021/12/12 10:26:40;;;;;;;4.40;1.73;;;8.00;99.90;;;;;;4933539;29;20186;-47
2021/12/12 10:29:12;;;;;;;3.83;1.67;;;8.00;99.90;;;;;;4988342;28;20351;-48
2021/12/12 10:32:09;;;;;;;3.27;1.60;;;8.00;99.90;;;;;;4996539;28;20329;-49
2021/12/12 10:34:50;;;;;;;3.53;1.83;;;8.00;99.90;;;;;;4996769;28;20211;-47
2021/12/12 10:37:25;;;;;;;4.73;1.90;;;8.10;99.90;;;;;;4996737;28;20165;-46
2021/12/12 10:40:04;;;;;;;3.83;1.73;;;8.10;99.90;;;;;;4996492;28;20176;-48
2021/12/12 10:42:36;;;;;;;3.47;1.63;;;8.10;99.90;;;;;;4996298;28;20583;-46
2021/12/12 10:45:11;;;;;;;5.10;1.80;;;8.10;99.90;;;;;;4996168;28;20176;-47
2021/12/12 10:47:56;;;;;;;2.53;1.70;;;8.20;99.90;;;;;;4979621;28;20163;-48
2021/12/12 10:50:29;;;;;;;2.93;1.80;;;8.20;99.90;;;;;;4996286;28;20628;-46
2021/12/12 10:53:18;;;;;;;4.53;1.90;;;8.20;99.90;;;;;;4995966;28;20209;-47
2021/12/12 10:55:57;;;;;;;4.03;1.87;;;8.30;99.90;;;;;;4996409;28;20177;-47
2021/12/12 10:58:42;;;;;;;2.80;1.73;;;8.30;99.90;;;;;;4996137;28;20588;-48
2021/12/12 11:01:20;;;;;;;4.50;2.00;;;8.30;99.90;;;;;;4996088;28;20186;-47
2021/12/12 11:04:08;;;;;;;5.07;1.90;;;8.30;99.90;;;;;;4976575;28;20680;-46
2021/12/12 11:06:42;;;;;;;4.00;1.73;;;8.40;99.90;;;;;;5005299;28;20236;-46
2021/12/12 11:09:22;;;;;;;4.97;1.93;;;8.40;99.90;;;;;;4978876;28;20169;-46
2021/12/12 11:12:00;;;;;;;6.50;2.03;;;8.40;99.90;;;;;;4995889;28;20207;-48
2021/12/12 11:14:35;;;;;;;3.73;1.73;;;8.40;99.90;;;;;;4995788;28;20201;-48
2021/12/12 11:17:19;;;;;;;4.73;1.80;;;8.40;99.90;;;;;;4995983;28;20166;-48
2021/12/12 11:19:58;;;;;;;3.33;1.77;;;8.50;99.90;;;;;;4978297;28;20571;-46
2021/12/12 11:22:26;;;;;;;3.47;1.80;;;8.40;99.90;;;;;;4995956;28;20213;-47
2021/12/12 11:25:00;;;;;;;4.13;1.97;;;8.40;99.90;;;;;;4978181;28;20184;-48
2021/12/12 11:27:56;;;;;;;3.20;1.80;;;8.40;99.90;;;;;;4995698;28;20167;-47
2021/12/12 11:30:34;;;;;;;7.87;2.00;;;8.50;99.90;;;;;;4994452;28;20192;-48
2021/12/12 11:33:03;;;;;;;3.87;1.60;;;8.50;99.90;;;;;;4995713;28;20292;-48
2021/12/12 11:35:30;;;;;;;2.63;1.53;;;8.50;99.90;;;;;;4995498;28;20178;-46
2021/12/12 11:38:04;;;;;;;3.00;1.37;;;8.50;99.90;;;;;;4995140;28;20185;-48
2021/12/12 11:40:51;;;;;;;5.50;1.80;;;8.50;99.90;;;;;;4994938;28;20172;-47
2021/12/12 11:43:27;;;;;;;2.37;1.70;;;8.50;99.90;;;;;;4995772;28;20177;-47
2021/12/12 11:46:04;;;;;;;3.47;1.80;;;8.50;99.90;;;;;;4978874;28;20593;-48
2021/12/12 11:49:10;;;;;;;4.70;1.70;;;8.60;99.90;;;;;;4995447;28;20166;-41
2021/12/12 11:52:10;;;;;;;2.73;1.57;;;8.60;99.90;;;;;;4977662;28;20292;-44
2021/12/12 11:55:10;;;;;;;3.23;1.40;;;8.60;99.90;;;;;;4995765;28;20167;-42
2021/12/12 11:58:12;;;;;;;2.40;1.50;;;8.60;99.90;;;;;;4994153;28;20197;-43
2021/12/12 12:00:47;;;;;;;5.23;1.67;;;8.70;99.90;;;;;;4995203;28;20182;-43
2021/12/12 12:03:48;;;;;;;3.53;1.40;;;8.70;99.90;;;;;;4995058;28;20198;-44
2021/12/12 12:10:05;;;;;;;4.77;2.27;;;8.70;99.90;;;;;;4994944;28;20166;-44
2021/12/12 12:12:43;;;;;;;3.47;2.00;;;8.80;99.90;;;;;;4994845;28;20263;-43
2021/12/12 12:19:07;;;;;;;3.07;1.77;;;8.80;99.90;;;;;;4994748;28;20162;-42
2021/12/12 12:22:10;;;;;;;2.00;1.50;;;8.80;99.90;;;;;;4977322;28;20546;-41
2021/12/12 12:24:58;;;;;;;2.93;2.57;;;8.80;99.90;;;;;;4994765;28;20163;-42
2021/12/12 12:27:35;;;;;;;4.47;2.33;;;8.80;99.90;;;;;;4977262;28;20178;-44
2021/12/12 12:30:03;;;;;;;3.30;2.07;;;8.80;99.90;;;;;;4994794;28;20159;-44
2021/12/12 12:33:08;;;;;;;4.27;2.30;;;8.80;99.90;;;;;;4976923;28;20284;-42
2021/12/12 12:36:04;;;;;;;2.50;1.63;;;8.80;99.90;;;;;;4994725;28;20190;-42
2021/12/12 12:38:56;;;;;;;2.80;2.50;;;8.80;99.90;;;;;;4994371;28;20530;-44
2021/12/12 12:41:52;;;;;;;3.07;1.70;;;8.80;99.90;;;;;;4994237;28;20221;-41
2021/12/12 12:44:55;;;;;;;2.20;2.00;;;8.80;99.90;;;;;;4977083;28;20552;-42
2021/12/12 12:52:09;;;;;;;5.90;3.87;;;8.80;99.90;;;;;;4954049;28;20175;-47
2021/12/12 12:55:01;;;;;;;3.43;2.03;;;8.80;99.90;;;;;;4896873;29;20343;-43
2021/12/12 12:57:40;;;;;;;4.43;2.87;;;8.80;99.90;;;;;;4912140;29;20193;-43
2021/12/12 13:00:16;;;;;;;3.17;2.57;;;8.80;99.90;;;;;;4961173;28;20213;-41
2021/12/12 13:03:24;;;;;;;2.83;2.13;;;8.80;99.90;;;;;;4993977;28;20264;-42
2021/12/12 13:06:01;;;;;;;3.30;2.27;;;8.80;99.90;;;;;;4994118;28;20168;-42
2021/12/12 13:08:48;;;;;;;6.57;2.50;;;8.70;99.90;;;;;;4994286;28;20174;-42
2021/12/12 13:11:30;;;;;;;3.57;2.07;;;8.70;99.90;;;;;;4993835;28;20204;-43
2021/12/12 13:14:23;;;;;;;5.47;2.50;;;8.80;99.90;;;;;;4993977;28;20206;-44
2021/12/12 13:16:54;;;;;;;8.63;3.00;;;8.70;99.90;;;;;;4993928;28;20171;-44
2021/12/12 13:20:04;;;;;;;3.60;2.27;;;8.70;99.90;;;;;;4994020;28;20171;-44
2021/12/12 13:22:55;;;;;;;4.07;2.33;;;8.70;99.90;;;;;;4990562;28;20230;-44
2021/12/12 13:25:27;;;;;;;2.23;1.80;;;8.70;99.90;;;;;;4994081;28;20162;-43
2021/12/12 13:28:17;;;;;;;2.77;2.27;;;8.70;99.90;;;;;;4993835;28;20182;-42
2021/12/12 13:31:16;;;;;;;3.10;2.13;;;8.70;99.90;;;;;;4993932;28;20151;-41
2021/12/12 13:34:06;;;;;;;5.60;4.20;;;8.70;99.90;;;;;;4994591;28;20166;-40
2021/12/12 13:36:55;;;;;;;2.30;2.10;;;8.70;99.90;;;;;;4993762;28;20237;-42
2021/12/12 13:39:38;;;;;;;2.30;1.67;;;8.70;99.90;;;;;;4993825;28;20171;-42
2021/12/12 13:42:26;;;;;;;2.80;2.30;;;8.70;99.90;;;;;;4993951;28;20216;-42
2021/12/12 13:45:10;;;;;;;2.03;1.90;;;8.70;99.90;;;;;;4976239;28;20151;-44
2021/12/12 13:48:01;;;;;;;1.73;1.63;;;8.80;99.90;;;;;;4993971;28;20321;-43
2021/12/12 13:50:40;;;;;;;1.63;1.53;;;8.70;99.90;;;;;;4993809;28;20170;-42
2021/12/12 13:53:30;;;;;;;3.80;1.90;;;8.70;99.90;;;;;;4993601;28;20217;-43
2021/12/12 13:56:13;;;;;;;1.87;1.60;;;8.70;99.90;;;;;;4993787;28;20190;-43
2021/12/12 13:58:55;;;;;;;2.33;1.83;;;8.70;99.90;;;;;;4993577;28;20322;-43
2021/12/12 14:01:28;;;;;;;4.33;2.23;;;8.70;99.90;;;;;;4993414;28;20293;-43
2021/12/12 14:04:03;;;;;;;1.70;1.40;;;8.70;99.90;;;;;;4997866;28;20159;-42
2021/12/12 14:06:31;;;;;;;1.60;1.23;;;8.70;99.90;;;;;;4997486;28;20225;-43